createdAt,value
2022-10-13T00:01:53.221Z,7.35
2022-10-13T00:04:20.063Z,7.28
2022-10-13T00:06:46.816Z,7.30
2022-10-13T00:09:13.689Z,7.27
2022-10-13T00:11:40.434Z,7.23
2022-10-13T00:14:07.141Z,7.22
2022-10-13T00:16:36.219Z,7.26
2022-10-13T00:19:03.145Z,7.29
2022-10-13T00:21:30.074Z,7.32
2022-10-13T00:23:56.920Z,7.41
2022-10-13T00:26:25.669Z,7.51
2022-10-13T00:28:53.351Z,7.57
2022-10-13T00:31:26.533Z,7.60
2022-10-13T00:33:53.624Z,7.56
2022-10-13T00:36:21.621Z,7.69
2022-10-13T00:38:48.366Z,7.70
2022-10-13T00:41:15.583Z,7.73
2022-10-13T00:43:48.344Z,7.82
2022-10-13T00:46:16.050Z,7.80
2022-10-13T00:48:45.371Z,7.76
2022-10-13T00:51:14.732Z,7.70
2022-10-13T00:53:42.019Z,7.74
2022-10-13T00:56:10.099Z,7.76
2022-10-13T00:58:39.720Z,7.75
2022-10-13T01:01:07.118Z,7.72
2022-10-13T01:03:35.196Z,7.70
2022-10-13T01:06:04.802Z,7.73
2022-10-13T01:08:32.061Z,7.70
2022-10-13T01:11:04.463Z,7.70
2022-10-13T01:13:33.728Z,7.64
2022-10-13T01:16:17.120Z,7.63
2022-10-13T01:18:54.881Z,7.58
2022-10-13T01:21:42.697Z,7.55
2022-10-13T01:24:35.449Z,7.53
2022-10-13T01:27:20.699Z,7.53
2022-10-13T01:29:50.106Z,7.49
2022-10-13T01:32:29.919Z,7.45
2022-10-13T01:35:14.940Z,7.41
2022-10-13T01:37:53.720Z,7.37
2022-10-13T01:40:28.762Z,7.30
2022-10-13T01:43:02.739Z,7.30
2022-10-13T01:45:34.972Z,7.25
2022-10-13T01:48:04.792Z,7.19
2022-10-13T01:50:34.566Z,7.16
2022-10-13T01:53:04.977Z,7.14
2022-10-13T01:55:32.179Z,7.04
2022-10-13T01:57:58.837Z,7.07
2022-10-13T02:00:26.303Z,7.05
2022-10-13T02:03:31.593Z,6.97
2022-10-13T02:06:09.829Z,6.97
2022-10-13T02:08:53.934Z,6.91
2022-10-13T02:11:22.804Z,6.86
2022-10-13T02:14:24.409Z,6.84
2022-10-13T02:16:53.821Z,6.80
2022-10-13T02:19:21.140Z,6.69
2022-10-13T02:21:48.477Z,6.70
2022-10-13T02:24:15.051Z,6.69
2022-10-13T02:26:42.332Z,6.66
2022-10-13T02:29:13.401Z,6.61
2022-10-13T02:31:41.259Z,6.67
2022-10-13T02:34:08.457Z,6.68
2022-10-13T02:36:35.175Z,6.65
2022-10-13T02:39:02.009Z,6.61
2022-10-13T02:41:28.719Z,6.55
2022-10-13T02:43:55.412Z,6.56
2022-10-13T02:46:25.984Z,6.61
2022-10-13T02:48:52.833Z,6.64
2022-10-13T02:51:19.539Z,6.56
2022-10-13T02:53:46.656Z,6.61
2022-10-13T02:56:13.442Z,6.60
2022-10-13T02:58:40.218Z,6.60
2022-10-13T03:01:08.998Z,6.61
2022-10-13T03:03:36.607Z,6.63
2022-10-13T03:06:15.360Z,6.64
2022-10-13T03:08:43.079Z,6.63
2022-10-13T03:11:14.768Z,6.62
2022-10-13T03:13:42.646Z,6.60
2022-10-13T03:16:09.763Z,6.63
2022-10-13T03:18:36.932Z,6.64
2022-10-13T03:21:06.802Z,6.62
2022-10-13T03:23:37.299Z,6.55
2022-10-13T03:26:04.774Z,6.54
2022-10-13T03:28:32.029Z,6.48
2022-10-13T03:31:07.025Z,6.60
2022-10-13T03:33:34.021Z,6.60
2022-10-13T03:36:03.215Z,6.64
2022-10-13T03:38:31.772Z,6.66
2022-10-13T03:40:58.495Z,6.65
2022-10-13T03:43:25.467Z,6.61
2022-10-13T03:45:59.545Z,6.66
2022-10-13T03:48:26.805Z,6.63
2022-10-13T03:50:53.579Z,6.63
2022-10-13T03:53:20.316Z,6.48
2022-10-13T03:55:55.432Z,6.60
2022-10-13T03:58:24.200Z,6.59
2022-10-13T04:00:53.580Z,6.58
2022-10-13T04:03:20.728Z,6.56
2022-10-13T04:05:47.983Z,6.61
2022-10-13T04:08:15.116Z,6.55
2022-10-13T04:10:42.361Z,6.61
2022-10-13T04:13:09.119Z,6.62
2022-10-13T04:15:40.552Z,6.63
2022-10-13T04:18:08.991Z,6.63
2022-10-13T04:20:38.260Z,6.62
2022-10-13T04:23:05.051Z,6.62
2022-10-13T04:25:34.011Z,6.62
2022-10-13T04:28:00.732Z,6.66
2022-10-13T04:30:27.524Z,6.70
2022-10-13T04:32:54.188Z,6.70
2022-10-13T04:35:20.921Z,6.79
2022-10-13T04:37:47.684Z,6.78
2022-10-13T04:40:15.409Z,6.77
2022-10-13T04:42:42.233Z,6.81
2022-10-13T04:45:09.409Z,6.83
2022-10-13T04:47:40.180Z,6.87
2022-10-13T04:50:07.308Z,6.90
2022-10-13T04:52:35.696Z,6.90
2022-10-13T04:55:02.862Z,6.88
2022-10-13T04:57:30.043Z,6.77
2022-10-13T04:59:56.716Z,6.91
2022-10-13T05:02:23.598Z,6.95
2022-10-13T05:04:50.350Z,6.90
2022-10-13T05:07:18.665Z,7.02
2022-10-13T05:09:45.943Z,7.06
2022-10-13T05:12:12.980Z,7.05
2022-10-13T05:14:39.743Z,7.06
2022-10-13T05:17:07.524Z,7.05
2022-10-13T05:19:34.224Z,7.08
2022-10-13T05:22:01.000Z,7.09
2022-10-13T05:24:38.673Z,7.10
2022-10-13T05:27:07.457Z,7.18
2022-10-13T05:29:34.236Z,7.22
2022-10-13T05:32:00.949Z,7.22
2022-10-13T05:34:27.816Z,7.22
2022-10-13T05:36:54.567Z,7.30
2022-10-13T05:39:21.372Z,7.39
2022-10-13T05:41:48.259Z,7.44
2022-10-13T05:44:20.849Z,7.48
2022-10-13T05:46:53.537Z,7.49
2022-10-13T05:49:20.395Z,7.48
2022-10-13T05:51:53.559Z,7.60
2022-10-13T05:54:30.127Z,7.70
2022-10-13T05:57:06.532Z,7.75
2022-10-13T05:59:38.069Z,7.70
2022-10-13T06:02:10.147Z,7.85
2022-10-13T06:04:43.540Z,7.91
2022-10-13T06:07:10.529Z,7.95
2022-10-13T06:09:38.725Z,8.01
2022-10-13T06:12:06.818Z,8.07
2022-10-13T06:14:33.697Z,8.06
2022-10-13T06:17:03.528Z,8.01
2022-10-13T06:19:30.489Z,7.99
2022-10-13T06:22:05.713Z,8.04
2022-10-13T06:24:33.397Z,8.11
2022-10-13T06:27:00.465Z,8.20
2022-10-13T06:29:27.173Z,8.12
2022-10-13T06:31:53.879Z,8.06
2022-10-13T06:34:20.585Z,8.02
2022-10-13T06:36:47.517Z,8.05
2022-10-13T06:39:14.566Z,8.03
2022-10-13T06:41:41.354Z,8.00
2022-10-13T06:44:08.133Z,7.91
2022-10-13T06:46:34.815Z,7.95
2022-10-13T06:49:01.521Z,7.93
2022-10-13T06:51:29.354Z,7.88
2022-10-13T06:53:57.144Z,7.90
2022-10-13T06:56:25.628Z,7.88
2022-10-13T06:58:52.655Z,7.87
2022-10-13T07:01:19.479Z,7.92
2022-10-13T07:03:49.760Z,8.04
2022-10-13T07:06:19.375Z,8.16
2022-10-13T07:08:45.899Z,8.17
2022-10-13T07:11:16.161Z,8.16
2022-10-13T07:13:47.469Z,8.06
2022-10-13T07:16:16.036Z,8.17
2022-10-13T07:18:42.795Z,8.24
2022-10-13T07:21:09.700Z,8.29
2022-10-13T07:23:36.404Z,8.45
2022-10-13T07:26:08.269Z,8.64
2022-10-13T07:28:35.167Z,8.79
2022-10-13T07:31:11.910Z,8.90
2022-10-13T07:33:39.255Z,9.06
2022-10-13T07:36:07.332Z,8.86
2022-10-13T07:38:34.170Z,8.74
2022-10-13T07:41:05.668Z,8.86
2022-10-13T07:43:32.885Z,8.93
2022-10-13T07:46:07.199Z,9.09
2022-10-13T07:48:34.789Z,9.24
2022-10-13T07:51:07.294Z,9.34
2022-10-13T07:53:35.543Z,9.45
2022-10-13T07:56:03.596Z,9.58
2022-10-13T07:58:30.274Z,9.79
2022-10-13T08:01:02.062Z,9.79
2022-10-13T08:03:30.122Z,9.59
2022-10-13T08:05:59.480Z,9.66
2022-10-13T08:08:26.789Z,9.73
2022-10-13T08:13:23.379Z,9.98
2022-10-13T08:15:50.133Z,10.16
2022-10-13T08:18:16.859Z,10.28
2022-10-13T08:20:45.655Z,10.39
2022-10-13T08:23:13.531Z,10.54
2022-10-13T08:25:48.413Z,10.79
2022-10-13T08:28:24.585Z,10.96
2022-10-13T08:30:53.514Z,11.01
2022-10-13T08:33:20.679Z,11.05
2022-10-13T08:35:47.404Z,10.98
2022-10-13T08:38:14.508Z,11.00
2022-10-13T08:40:45.825Z,11.02
2022-10-13T08:43:19.560Z,11.11
2022-10-13T08:45:50.085Z,11.12
2022-10-13T08:48:24.796Z,11.22
2022-10-13T08:50:56.180Z,11.47
2022-10-13T08:53:27.620Z,11.81
2022-10-13T08:56:10.628Z,12.10
2022-10-13T08:58:43.021Z,12.32
2022-10-13T09:01:25.799Z,12.35
2022-10-13T09:04:01.028Z,12.57
2022-10-13T09:06:36.538Z,12.90
2022-10-13T09:09:09.824Z,13.01
2022-10-13T09:11:40.839Z,13.04
2022-10-13T09:14:10.349Z,13.18
2022-10-13T09:16:42.904Z,13.36
2022-10-13T09:19:25.958Z,13.49
2022-10-13T09:21:56.106Z,13.82
2022-10-13T09:24:25.346Z,14.20
2022-10-13T09:27:07.122Z,14.93
2022-10-13T09:29:38.417Z,15.54
2022-10-13T09:32:21.679Z,15.90
2022-10-13T09:34:48.979Z,15.95
2022-10-13T09:37:22.307Z,16.11
2022-10-13T09:40:12.897Z,16.42
2022-10-13T09:42:39.827Z,16.59
2022-10-13T09:45:27.289Z,16.97
2022-10-13T09:48:06.971Z,17.33
2022-10-13T09:50:35.931Z,17.62
2022-10-13T09:53:21.082Z,17.90
2022-10-13T09:55:49.623Z,18.03
2022-10-13T09:58:28.405Z,18.49
2022-10-13T10:00:56.552Z,19.00
2022-10-13T10:03:41.415Z,19.28
2022-10-13T10:06:12.531Z,19.65
2022-10-13T10:09:04.651Z,19.97
2022-10-13T10:11:44.105Z,20.10
2022-10-13T10:14:19.845Z,20.31
2022-10-13T10:17:31.549Z,20.47
2022-10-13T10:20:14.043Z,20.77
2022-10-13T10:22:52.861Z,20.96
2022-10-13T10:25:33.264Z,21.13
2022-10-13T10:28:15.263Z,20.80
2022-10-13T10:31:04.087Z,20.94
2022-10-13T10:33:55.835Z,21.21
2022-10-13T10:36:56.531Z,21.63
2022-10-13T10:39:36.118Z,21.74
2022-10-13T10:42:25.654Z,21.81
2022-10-13T10:44:56.093Z,21.63
2022-10-13T10:47:30.303Z,21.58
2022-10-13T10:50:02.953Z,21.27
2022-10-13T10:52:54.804Z,21.32
2022-10-13T10:55:59.632Z,21.35
2022-10-13T10:58:55.911Z,20.97
2022-10-13T11:01:47.114Z,21.07
2022-10-13T11:04:35.899Z,21.34
2022-10-13T11:07:04.299Z,21.58
2022-10-13T11:09:43.094Z,21.62
2022-10-13T11:12:19.091Z,21.25
2022-10-13T11:14:55.227Z,21.30
2022-10-13T11:17:29.490Z,20.96
2022-10-13T11:19:58.144Z,21.01
2022-10-13T11:22:26.611Z,20.91
2022-10-13T11:25:18.800Z,21.34
2022-10-13T11:27:45.520Z,21.66
2022-10-13T11:30:44.600Z,22.00
2022-10-13T11:33:38.759Z,22.24
2022-10-13T11:36:33.153Z,22.39
2022-10-13T11:39:28.623Z,22.34
2022-10-13T11:42:02.870Z,22.51
2022-10-13T11:44:57.286Z,22.39
2022-10-13T11:48:00.985Z,22.60
2022-10-13T11:50:36.521Z,22.47
2022-10-13T11:53:14.909Z,22.52
2022-10-13T11:55:44.744Z,22.56
2022-10-13T11:58:20.269Z,22.66
2022-10-13T12:01:06.558Z,22.80
2022-10-13T12:03:42.272Z,23.13
2022-10-13T12:06:23.586Z,23.27
2022-10-13T12:08:51.981Z,23.20
2022-10-13T12:11:27.686Z,23.06
2022-10-13T12:13:55.276Z,23.22
2022-10-13T12:16:22.200Z,22.91
2022-10-13T12:18:51.551Z,22.80
2022-10-13T12:21:22.587Z,22.88
2022-10-13T12:23:51.801Z,23.11
2022-10-13T12:26:24.270Z,23.17
2022-10-13T12:28:55.857Z,23.25
2022-10-13T12:31:27.668Z,23.54
2022-10-13T12:34:02.814Z,23.68
2022-10-13T12:36:35.156Z,23.29
2022-10-13T12:39:05.756Z,23.04
2022-10-13T12:41:36.140Z,22.92
2022-10-13T12:44:06.663Z,22.97
2022-10-13T12:46:39.777Z,23.13
2022-10-13T12:49:12.564Z,23.09
2022-10-13T12:51:40.213Z,22.91
2022-10-13T12:54:19.048Z,22.47
2022-10-13T12:56:55.248Z,22.44
2022-10-13T12:59:24.623Z,22.54
2022-10-13T13:01:58.622Z,22.72
2022-10-13T13:04:41.205Z,22.83
2022-10-13T13:07:29.336Z,22.56
2022-10-13T13:10:13.492Z,22.47
2022-10-13T13:12:41.016Z,22.65
2022-10-13T13:15:25.605Z,22.87
2022-10-13T13:17:58.315Z,23.01
2022-10-13T13:20:34.853Z,23.21
2022-10-13T13:23:01.797Z,23.10
2022-10-13T13:25:28.597Z,22.93
2022-10-13T13:27:55.369Z,23.01
2022-10-13T13:30:24.178Z,22.97
2022-10-13T13:32:50.986Z,23.04
2022-10-13T13:35:22.336Z,23.06
2022-10-13T13:37:53.909Z,23.10
2022-10-13T13:40:24.885Z,23.16
2022-10-13T13:42:51.861Z,23.43
2022-10-13T13:45:21.695Z,23.33
2022-10-13T13:47:49.676Z,23.05
2022-10-13T13:50:25.885Z,22.87
2022-10-13T13:52:58.764Z,22.79
2022-10-13T13:55:26.782Z,22.64
2022-10-13T13:57:53.549Z,22.50
2022-10-13T14:00:20.697Z,22.57
2022-10-13T14:02:54.817Z,22.59
2022-10-13T14:05:21.592Z,22.67
2022-10-13T14:07:48.297Z,22.78
2022-10-13T14:10:15.299Z,22.77
2022-10-13T14:12:42.876Z,22.75
2022-10-13T14:15:10.249Z,22.86
2022-10-13T14:17:37.623Z,22.82
2022-10-13T14:20:04.867Z,23.01
2022-10-13T14:22:39.988Z,23.19
2022-10-13T14:25:07.605Z,23.18
2022-10-13T14:27:35.479Z,23.08
2022-10-13T14:30:06.483Z,23.01
2022-10-13T14:32:34.310Z,22.66
2022-10-13T14:35:01.439Z,22.59
2022-10-13T14:37:32.995Z,22.59
2022-10-13T14:40:00.689Z,22.43
2022-10-13T14:42:27.503Z,21.97
2022-10-13T14:44:54.089Z,21.62
2022-10-13T14:47:21.114Z,21.61
2022-10-13T14:49:48.055Z,21.54
2022-10-13T14:52:14.597Z,21.19
2022-10-13T14:54:44.810Z,21.12
2022-10-13T14:57:15.891Z,20.86
2022-10-13T14:59:43.580Z,20.82
2022-10-13T15:02:14.000Z,20.51
2022-10-13T15:04:51.108Z,20.40
2022-10-13T15:07:18.681Z,20.12
2022-10-13T15:09:53.397Z,19.99
2022-10-13T15:12:31.621Z,19.81
2022-10-13T15:14:58.306Z,19.64
2022-10-13T15:17:24.850Z,19.55
2022-10-13T15:19:51.568Z,19.51
2022-10-13T15:22:18.587Z,19.37
2022-10-13T15:24:45.781Z,19.27
2022-10-13T15:27:12.511Z,19.12
2022-10-13T15:29:39.104Z,19.07
2022-10-13T15:32:18.506Z,19.10
2022-10-13T15:34:50.295Z,18.96
2022-10-13T15:37:16.902Z,18.76
2022-10-13T15:39:43.641Z,18.60
2022-10-13T15:42:11.861Z,18.37
2022-10-13T15:45:08.194Z,18.08
2022-10-13T15:47:25.490Z,17.78
2022-10-13T15:49:52.306Z,17.57
2022-10-13T15:52:19.149Z,17.40
2022-10-13T15:54:46.164Z,17.27
2022-10-13T15:57:12.893Z,17.08
2022-10-13T15:59:39.593Z,16.93
2022-10-13T16:02:06.430Z,16.68
2022-10-13T16:04:37.254Z,16.66
2022-10-13T16:07:04.277Z,16.37
2022-10-13T16:09:31.240Z,16.42
2022-10-13T16:11:57.985Z,16.31
2022-10-13T16:14:24.628Z,16.22
2022-10-13T16:16:51.385Z,16.08
2022-10-13T16:19:18.145Z,16.03
2022-10-13T16:21:46.774Z,15.93
2022-10-13T16:24:13.944Z,15.85
2022-10-13T16:26:40.700Z,15.71
2022-10-13T16:29:07.420Z,15.63
2022-10-13T16:31:35.198Z,15.52
2022-10-13T16:34:02.103Z,15.41
2022-10-13T16:36:28.662Z,15.30
2022-10-13T16:38:55.587Z,15.20
2022-10-13T16:41:22.750Z,15.10
2022-10-13T16:43:50.322Z,14.96
2022-10-13T16:46:19.698Z,14.91
2022-10-13T16:48:47.170Z,14.79
2022-10-13T16:51:18.209Z,14.71
2022-10-13T16:53:49.657Z,14.62
2022-10-13T16:56:21.981Z,14.52
2022-10-13T16:58:54.837Z,14.35
2022-10-13T17:01:21.968Z,14.11
2022-10-13T17:03:50.085Z,14.04
2022-10-13T17:06:18.000Z,13.92
2022-10-13T17:08:44.717Z,13.84
2022-10-13T17:11:17.047Z,13.80
2022-10-13T17:13:43.868Z,13.70
2022-10-13T17:16:10.644Z,13.69
2022-10-13T17:18:37.841Z,13.67
2022-10-13T17:21:09.124Z,13.61
2022-10-13T17:23:36.894Z,13.57
2022-10-13T17:26:10.110Z,13.51
2022-10-13T17:28:37.660Z,13.32
2022-10-13T17:31:11.957Z,13.24
2022-10-13T17:33:40.254Z,13.11
2022-10-13T17:36:10.947Z,13.00
2022-10-13T17:38:37.918Z,12.89
2022-10-13T17:41:07.537Z,12.79
2022-10-13T17:43:35.197Z,12.70
2022-10-13T17:49:01.127Z,12.68
2022-10-13T17:51:28.273Z,12.65
2022-10-13T17:53:55.162Z,12.63
2022-10-13T17:56:24.191Z,12.62
2022-10-13T17:58:51.554Z,12.60
2022-10-13T18:01:24.881Z,12.58
2022-10-13T18:03:57.125Z,12.52
2022-10-13T18:06:37.952Z,12.42
2022-10-13T18:09:14.965Z,12.44
2022-10-13T18:11:47.087Z,12.42
2022-10-13T18:14:17.582Z,12.41
2022-10-13T18:16:44.825Z,12.44
2022-10-13T18:19:12.799Z,12.46
2022-10-13T18:21:39.565Z,12.45
2022-10-13T18:24:06.701Z,12.44
2022-10-13T18:26:36.654Z,12.47
2022-10-13T18:29:05.895Z,12.40
2022-10-13T18:31:34.951Z,12.28
2022-10-13T18:34:05.177Z,12.35
2022-10-13T18:36:31.903Z,12.31
2022-10-13T18:39:11.469Z,12.26
2022-10-13T18:41:39.725Z,12.18
2022-10-13T18:44:07.421Z,12.15
2022-10-13T18:46:35.872Z,12.06
2022-10-13T18:49:04.033Z,12.03
2022-10-13T18:51:35.963Z,11.97
2022-10-13T18:54:04.891Z,11.89
2022-10-13T18:56:32.548Z,11.85
2022-10-13T18:59:01.540Z,11.88
2022-10-13T19:01:30.697Z,11.82
2022-10-13T19:03:57.922Z,11.72
2022-10-13T19:06:27.231Z,11.61
2022-10-13T19:09:00.739Z,11.52
2022-10-13T19:11:29.033Z,11.45
2022-10-13T19:13:57.175Z,11.41
2022-10-13T19:16:26.048Z,11.38
2022-10-13T19:18:53.127Z,11.39
2022-10-13T19:21:21.045Z,11.39
2022-10-13T19:23:48.206Z,11.40
2022-10-13T19:26:26.535Z,11.34
2022-10-13T19:28:55.541Z,11.41
2022-10-13T19:31:24.325Z,11.40
2022-10-13T19:33:52.604Z,11.29
2022-10-13T19:36:30.269Z,11.26
2022-10-13T19:39:00.886Z,11.19
2022-10-13T19:41:30.860Z,11.15
2022-10-13T19:43:58.334Z,11.15
2022-10-13T19:46:34.798Z,11.03
2022-10-13T19:49:01.945Z,11.12
2022-10-13T19:51:28.624Z,11.08
2022-10-13T19:53:55.456Z,11.08
2022-10-13T19:56:25.097Z,11.09
2022-10-13T19:58:52.661Z,11.06
2022-10-13T20:01:21.293Z,10.92
2022-10-13T20:03:48.443Z,10.99
2022-10-13T20:06:16.204Z,10.92
2022-10-13T20:08:44.948Z,10.85
2022-10-13T20:11:14.170Z,10.79
2022-10-13T20:13:43.953Z,10.73
2022-10-13T20:16:13.735Z,10.67
2022-10-13T20:18:41.550Z,10.56
2022-10-13T20:21:10.789Z,10.44
2022-10-13T20:23:38.149Z,10.51
2022-10-13T20:26:05.659Z,10.50
2022-10-13T20:28:40.562Z,10.48
2022-10-13T20:31:12.881Z,10.48
2022-10-13T20:33:40.535Z,10.45
2022-10-13T20:36:11.718Z,10.37
2022-10-13T20:38:38.923Z,10.35
2022-10-13T20:41:25.253Z,10.32
2022-10-13T20:43:53.986Z,10.26
2022-10-13T20:46:21.851Z,10.29
2022-10-13T20:51:36.615Z,10.31
2022-10-13T20:54:03.489Z,10.32
2022-10-13T20:56:30.220Z,10.21
2022-10-13T20:58:57.272Z,10.21
2022-10-13T21:01:24.065Z,10.13
2022-10-13T21:03:55.275Z,10.12
2022-10-13T21:06:24.276Z,10.02
2022-10-13T21:08:51.325Z,9.91
2022-10-13T21:11:20.527Z,9.88
2022-10-13T21:13:48.331Z,9.92
2022-10-13T21:16:18.952Z,9.90
2022-10-13T21:18:50.702Z,9.77
2022-10-13T21:21:22.957Z,9.74
2022-10-13T21:23:58.479Z,9.73
2022-10-13T21:26:27.715Z,9.60
2022-10-13T21:28:54.908Z,9.52
2022-10-13T21:31:22.561Z,9.49
2022-10-13T21:33:49.881Z,9.45
2022-10-13T21:36:30.431Z,9.42
2022-10-13T21:39:00.115Z,9.40
2022-10-13T21:41:28.375Z,9.37
2022-10-13T21:43:55.661Z,9.32
2022-10-13T21:46:23.560Z,9.29
2022-10-13T21:48:57.820Z,9.23
2022-10-13T21:51:30.066Z,9.17
2022-10-13T21:54:01.432Z,9.01
2022-10-13T21:56:31.032Z,9.15
2022-10-13T21:58:59.481Z,9.13
2022-10-13T22:01:26.072Z,9.17
2022-10-13T22:03:55.227Z,9.14
2022-10-13T22:06:26.081Z,9.08
2022-10-13T22:08:54.984Z,8.97
2022-10-13T22:11:23.822Z,8.81
2022-10-13T22:13:50.893Z,8.68
2022-10-13T22:16:23.057Z,8.67
2022-10-13T22:18:54.613Z,8.70
2022-10-13T22:21:24.950Z,8.72
2022-10-13T22:23:51.758Z,8.70
2022-10-13T22:26:18.874Z,8.63
2022-10-13T22:28:45.805Z,8.58
2022-10-13T22:31:13.501Z,8.41
2022-10-13T22:33:41.819Z,8.49
2022-10-13T22:36:14.543Z,8.48
2022-10-13T22:38:41.950Z,8.46
2022-10-13T22:41:09.748Z,8.52
2022-10-13T22:43:36.908Z,8.53
2022-10-13T22:46:14.753Z,8.58
2022-10-13T22:48:42.032Z,8.58
2022-10-13T22:51:16.290Z,8.52
2022-10-13T22:53:43.769Z,8.55
2022-10-13T22:56:15.564Z,8.54
2022-10-13T22:58:43.411Z,8.53
2022-10-13T23:01:13.023Z,8.56
2022-10-13T23:03:40.732Z,8.55
2022-10-13T23:06:12.094Z,8.47
2022-10-13T23:08:38.958Z,8.39
2022-10-13T23:11:05.778Z,8.37
2022-10-13T23:13:32.487Z,8.42
2022-10-13T23:16:08.930Z,8.45
2022-10-13T23:18:38.272Z,8.41
2022-10-13T23:21:10.922Z,8.39
2022-10-13T23:23:38.077Z,8.38
2022-10-13T23:26:07.280Z,8.27
2022-10-13T23:28:35.029Z,8.41
2022-10-13T23:31:03.556Z,8.40
2022-10-13T23:33:30.935Z,8.45
2022-10-13T23:35:59.452Z,8.41
2022-10-13T23:38:29.033Z,8.40
2022-10-13T23:40:56.140Z,8.37
2022-10-13T23:43:22.851Z,8.41
2022-10-13T23:45:49.578Z,8.42
2022-10-13T23:48:16.259Z,8.33
2022-10-13T23:50:42.972Z,8.46
2022-10-13T23:53:09.765Z,8.40
2022-10-13T23:55:40.052Z,8.43
2022-10-13T23:58:07.092Z,8.38
